This is the latest recevied weather packets stored in our database for station/object IU1INZ-13. If no packets are shown the sender has not sent any weather packets the latest 10 day(s).
| Time | Temp. | Humidity | Pressure | Rain* | Wind** | Luminosity | Snow |
|---|---|---|---|---|---|---|---|
| 1777774532 | 12.78° C | 74% | 1020.1 hPa | 0 mm | - | - | - |
| 1777773632 | 12.22° C | 74% | 1020.2 hPa | 0 mm | - | - | - |
| 1777772756 | 12.78° C | 74% | 1020.2 hPa | 0 mm | - | - | - |
| 1777771838 | 12.78° C | 73% | 1020.2 hPa | 0 mm | - | - | - |
| 1777770940 | 12.22° C | 75% | 1020.3 hPa | 0 mm | - | - | - |
| 1777770043 | 12.22° C | 76% | 1020.3 hPa | 0 mm | - | - | - |
| 1777769147 | 12.22° C | 77% | 1020.4 hPa | 0 mm | - | - | - |
| 1777768234 | 12.22° C | 77% | 1020.5 hPa | 0 mm | - | - | - |
| 1777767334 | 12.22° C | 77% | 1020.7 hPa | 0 mm | - | - | - |
| 1777766432 | 12.78° C | 75% | 1020.8 hPa | 0 mm | - | - | - |
| 1777765540 | 13.33° C | 74% | 1020.9 hPa | 0 mm | - | - | - |
| 1777764631 | 13.89° C | 73% | 1021 hPa | 0 mm | - | - | - |
| 1777763734 | 14.44° C | 70% | 1021.1 hPa | 0 mm | - | - | - |
| 1777762839 | 15° C | 68% | 1021.1 hPa | 0 mm | - | - | - |
| 1777761934 | 15.56° C | 67% | 1021.1 hPa | 0 mm | - | - | - |
| 1777761037 | 15° C | 67% | 1021.1 hPa | 0 mm | - | - | - |
| 1777760132 | 15° C | 68% | 1021.1 hPa | 0 mm | - | - | - |
| 1777759238 | 15° C | 67% | 1021.2 hPa | 0 mm | - | - | - |
| 1777758336 | 15.56° C | 66% | 1021.2 hPa | 0 mm | - | - | - |
| 1777757438 | 15° C | 67% | 1021.4 hPa | 0 mm | - | - | - |
| 1777756539 | 15° C | 67% | 1021.3 hPa | 0 mm | - | - | - |
| 1777755639 | 15.56° C | 66% | 1021.5 hPa | 0 mm | - | - | - |
| 1777754734 | 15.56° C | 66% | 1021.5 hPa | 0 mm | - | - | - |
| 1777753830 | 15.56° C | 67% | 1021.5 hPa | 0 mm | - | - | - |
| 1777752935 | 15.56° C | 67% | 1021.7 hPa | 0 mm | - | - | - |
* Rain latest hour (hover to see other rain measurements)
** Current wind speed in m/s (hover to see current wind gust speed)